Big Bear Station Historical Data
Daily Summary for January 3, 2018 Units:  English    Metric   Both
Next Day »
Daily Weekly Monthly Yearly Custom
  High: Low: Average:
Temperature: 54.7 °F 26.8 °F 40.5 °F
Dew Point: 29.2 °F 16.4 °F 20 °F
Humidity: 79% 26% 48%
Wind Speed: 7.3mph 0.0mph 0.8mph
Wind Gust: -999.0mph - -
Wind- - WNW
Pressure: 30.31 in 23.59 in -
Precipitation: 0.00 in    
Historical Graphs
 
 
Tabular Data for January 3, 2018
Time Temperature Dew Point Pressure Wind Wind Speed Wind Gust Humidity Rainfall Rate (Hourly)
00:12 31.3 °F 17.8 °F 30.31 in Calm   -999.0 mph 57% 0 in
00:27 30.7 °F 17.7 °F 30.31 in Calm   -999.0 mph 58% 0 in
00:42 30.2 °F 17.6 °F 30.31 in Calm   -999.0 mph 59% 0 in
00:57 29.8 °F 17.2 °F 30.30 in Calm   -999.0 mph 59% 0 in
01:13 30.0 °F 20.7 °F 30.30 in Calm   -999.0 mph 68% 0 in
01:28 29.7 °F 20.1 °F 30.31 in Calm   -999.0 mph 67% 0 in
01:44 29.3 °F 19.7 °F 30.31 in Calm   -999.0 mph 67% 0 in
01:59 29.1 °F 18.8 °F 30.30 in Calm   -999.0 mph 65% 0 in
02:14 28.8 °F 18.2 °F 30.30 in Calm   -999.0 mph 64% 0 in
02:29 28.4 °F 20.2 °F 30.30 in Calm   -999.0 mph 71% 0 in
02:44 28.4 °F 20.5 °F 30.30 in Calm   -999.0 mph 72% 0 in
03:00 28.0 °F 19.1 °F 30.30 in Calm   -999.0 mph 69% 0 in
03:15 27.9 °F 19.0 °F 30.29 in Calm   -999.0 mph 69% 0 in
03:30 27.5 °F 19.0 °F 30.29 in Calm   -999.0 mph 70% 0 in
03:45 27.5 °F 19.0 °F 30.29 in Calm   -999.0 mph 70% 0 in
04:00 27.3 °F 19.1 °F 30.29 in Calm   -999.0 mph 71% 0 in
04:16 27.0 °F 19.5 °F 30.29 in Calm   -999.0 mph 73% 0 in
04:31 26.8 °F 19.6 °F 30.29 in Calm   -999.0 mph 74% 0 in
04:46 26.8 °F 20.9 °F 30.29 in Calm   -999.0 mph 78% 0 in
05:01 27.0 °F 21.4 °F 30.29 in Calm   -999.0 mph 79% 0 in
05:17 27.0 °F 20.8 °F 30.29 in Calm   -999.0 mph 77% 0 in
05:32 27.0 °F 20.1 °F 30.29 in Calm   -999.0 mph 75% 0 in
05:47 28.2 °F 21.3 °F 30.29 in Calm   -999.0 mph 75% 0 in
06:02 28.0 °F 21.4 °F 30.29 in Calm   -999.0 mph 76% 0 in
06:17 28.4 °F 21.5 °F 30.29 in Calm   -999.0 mph 75% 0 in
07:03 29.5 °F 21.3 °F 30.29 in Calm   -999.0 mph 71% 0 in
07:33 29.8 °F 20.9 °F 30.29 in Calm   -999.0 mph 69% 0 in
07:49 30.0 °F 20.4 °F 30.29 in Calm   -999.0 mph 67% 0 in
08:04 31.1 °F 21.8 °F 30.29 in Calm   -999.0 mph 68% 0 in
08:19 31.1 °F 22.1 °F 30.29 in Calm   -999.0 mph 69% 0 in
08:34 32.2 °F 23.5 °F 30.29 in Calm   -999.0 mph 70% 0 in
08:49 33.8 °F 24.7 °F 30.30 in Calm   -999.0 mph 69% 0 in
09:05 35.4 °F 25.5 °F 30.30 in Calm   -999.0 mph 67% 0 in
09:20 36.1 °F 25.5 °F 30.30 in Calm   -999.0 mph 65% 0 in
09:35 36.7 °F 25.7 °F 30.30 in Calm   -999.0 mph 64% 0 in
09:50 37.4 °F 26.7 °F 30.30 in Calm   -999.0 mph 65% 0 in
10:06 39.0 °F 27.9 °F 30.30 in Calm   -999.0 mph 64% 0 in
10:21 41.2 °F 28.4 °F 30.29 in Calm   -999.0 mph 60% 0 in
10:36 42.6 °F 22.2 °F 30.29 in Calm   -999.0 mph 44% 0 in
10:51 45.5 °F 26.9 °F 30.29 in Calm   -999.0 mph 48% 0 in
11:06 48.0 °F 29.2 °F 30.28 in Calm   -999.0 mph 48% 0 in
11:22 50.2 °F 27.4 °F 30.27 in Calm   -999.0 mph 41% 0 in
11:37 52.2 °F 21.7 °F 30.26 in NW 2.2 mph -999.0 mph 30% 0 in
11:52 54.0 °F 21.6 °F 30.26 in WNW 3.2 mph -999.0 mph 28% 0 in
12:07 54.7 °F 21.3 °F 30.26 in WNW 2.7 mph -999.0 mph 27% 0 in
12:22 54.1 °F 19.9 °F 30.25 in South 1.1 mph -999.0 mph 26% 0 in
12:38 53.4 °F 21.1 °F 30.24 in WNW 3.7 mph -999.0 mph 28% 0 in
12:53 53.4 °F 20.2 °F 30.24 in WNW 1.7 mph -999.0 mph 27% 0 in
13:08 54.0 °F 19.9 °F 30.24 in NW 2.2 mph -999.0 mph 26% 0 in
13:23 53.6 °F 19.5 °F 30.24 in NW 6.3 mph -999.0 mph 26% 0 in
13:38 53.4 °F 20.2 °F 30.23 in NNW 2.2 mph -999.0 mph 27% 0 in
13:54 52.9 °F 20.7 °F 30.24 in WNW 2.7 mph -999.0 mph 28% 0 in
14:09 52.2 °F 19.2 °F 30.24 in WNW 2.7 mph -999.0 mph 27% 0 in
14:24 52.0 °F 19.0 °F 30.24 in Calm   -999.0 mph 27% 0 in
14:39 52.2 °F 19.2 °F 30.23 in NW 2.2 mph -999.0 mph 27% 0 in
14:54 51.6 °F 18.7 °F 30.23 in NW 1.7 mph -999.0 mph 27% 0 in
15:10 50.9 °F 18.9 °F 30.23 in WNW 3.7 mph -999.0 mph 28% 0 in
15:25 50.5 °F 18.6 °F 30.23 in NNW 1.7 mph -999.0 mph 28% 0 in
15:40 50.4 °F 19.3 °F 30.24 in NW 2.2 mph -999.0 mph 29% 0 in
15:56 50.0 °F 19.0 °F 30.23 in NW 2.7 mph -999.0 mph 29% 0 in
16:26 49.3 °F 19.1 °F 30.24 in Calm   -999.0 mph 30% 0 in
16:41 49.1 °F 19.0 °F 30.24 in WNW 1.1 mph -999.0 mph 30% 0 in
16:56 48.9 °F 18.8 °F 30.24 in Calm   -999.0 mph 30% 0 in
17:11 48.4 °F 18.4 °F 30.24 in Calm   -999.0 mph 30% 0 in
17:27 48.0 °F 18.0 °F 30.24 in West 1.1 mph -999.0 mph 30% 0 in
17:42 47.8 °F 17.8 °F 30.24 in ESE 2.2 mph -999.0 mph 30% 0 in
17:58 47.5 °F 18.3 °F 30.24 in Calm   -999.0 mph 31% 0 in
18:13 47.1 °F 18.7 °F 30.25 in Calm   -999.0 mph 32% 0 in
18:28 46.6 °F 18.3 °F 30.25 in Calm   -999.0 mph 32% 0 in
18:43 46.8 °F 18.5 °F 30.25 in NNW 7.3 mph -999.0 mph 32% 0 in
18:59 46.6 °F 18.3 °F 30.26 in Calm   -999.0 mph 32% 0 in
19:14 46.4 °F 18.1 °F 30.26 in NW 2.2 mph -999.0 mph 32% 0 in
19:29 46.4 °F 18.1 °F 30.27 in WNW 1.7 mph -999.0 mph 32% 0 in
19:44 46.0 °F 17.8 °F 30.27 in North 2.2 mph -999.0 mph 32% 0 in
20:00 45.5 °F 17.3 °F 30.27 in Calm   -999.0 mph 32% 0 in
20:15 45.0 °F 16.9 °F 23.59 in Calm   -999.0 mph 32% 0 in
20:46 44.1 °F 16.8 °F 30.27 in Calm   -999.0 mph 33% 0 in
21:01 43.0 °F 17.2 °F 30.27 in Calm   -999.0 mph 35% 0 in
21:16 42.1 °F 17.0 °F 30.27 in Calm   -999.0 mph 36% 0 in
21:31 41.7 °F 16.7 °F 30.27 in Calm   -999.0 mph 36% 0 in
21:47 41.4 °F 16.4 °F 30.27 in Calm   -999.0 mph 36% 0 in
22:02 42.3 °F 16.6 °F 30.28 in Calm   -999.0 mph 35% 0 in
22:17 44.1 °F 17.5 °F 30.28 in Calm   -999.0 mph 34% 0 in
22:32 44.1 °F 17.5 °F 30.28 in WSW 3.7 mph -999.0 mph 34% 0 in
22:47 43.9 °F 17.3 °F 23.60 in Calm   -999.0 mph 34% 0 in
23:03 44.1 °F 16.8 °F 30.28 in Calm   -999.0 mph 33% 0 in
23:19 44.1 °F 16.8 °F 30.28 in ESE 1.7 mph -999.0 mph 33% 0 in
23:34 43.2 °F 16.7 °F 30.27 in Calm   -999.0 mph 34% 0 in
23:49 42.6 °F 16.8 °F 30.27 in Calm   -999.0 mph 35% 0 in
Big Bear CA Weather